sensor_id;sensor_type;location;lat;lon;timestamp;temperature;humidity
10129;DHT22;5104;50.720;7.044;2022-11-15T00:02:23;11.40;99.90
10129;DHT22;5104;50.720;7.044;2022-11-15T00:04:49;11.40;99.90
10129;DHT22;5104;50.720;7.044;2022-11-15T00:07:16;11.40;99.90
10129;DHT22;5104;50.720;7.044;2022-11-15T00:09:44;11.40;99.90
10129;DHT22;5104;50.720;7.044;2022-11-15T00:12:11;11.40;99.90
10129;DHT22;5104;50.720;7.044;2022-11-15T00:14:38;11.50;99.90
10129;DHT22;5104;50.720;7.044;2022-11-15T00:17:05;11.50;99.90
10129;DHT22;5104;50.720;7.044;2022-11-15T00:19:32;11.50;99.90
10129;DHT22;5104;50.720;7.044;2022-11-15T00:21:59;11.40;99.90
10129;DHT22;5104;50.720;7.044;2022-11-15T00:24:26;11.40;99.90
10129;DHT22;5104;50.720;7.044;2022-11-15T00:26:54;11.40;99.90
10129;DHT22;5104;50.720;7.044;2022-11-15T00:29:21;11.40;99.90
10129;DHT22;5104;50.720;7.044;2022-11-15T00:31:48;11.40;99.90
10129;DHT22;5104;50.720;7.044;2022-11-15T00:34:15;11.40;99.90
10129;DHT22;5104;50.720;7.044;2022-11-15T00:36:41;11.40;99.90
10129;DHT22;5104;50.720;7.044;2022-11-15T00:39:08;11.50;99.90
10129;DHT22;5104;50.720;7.044;2022-11-15T00:41:35;11.50;99.90
10129;DHT22;5104;50.720;7.044;2022-11-15T00:44:03;11.40;99.90
10129;DHT22;5104;50.720;7.044;2022-11-15T00:46:30;11.40;99.90
10129;DHT22;5104;50.720;7.044;2022-11-15T00:48:57;11.30;99.90
10129;DHT22;5104;50.720;7.044;2022-11-15T00:51:24;11.30;99.90
10129;DHT22;5104;50.720;7.044;2022-11-15T00:53:51;11.50;99.90
10129;DHT22;5104;50.720;7.044;2022-11-15T00:56:19;11.50;99.90
10129;DHT22;5104;50.720;7.044;2022-11-15T00:58:46;11.60;99.90
10129;DHT22;5104;50.720;7.044;2022-11-15T01:01:14;11.70;99.90
10129;DHT22;5104;50.720;7.044;2022-11-15T01:03:41;11.70;99.90
10129;DHT22;5104;50.720;7.044;2022-11-15T01:06:08;11.80;99.90
10129;DHT22;5104;50.720;7.044;2022-11-15T01:08:36;11.80;99.90
10129;DHT22;5104;50.720;7.044;2022-11-15T01:11:03;11.90;99.90
10129;DHT22;5104;50.720;7.044;2022-11-15T01:13:31;11.90;99.90
10129;DHT22;5104;50.720;7.044;2022-11-15T01:15:58;11.90;99.90
10129;DHT22;5104;50.720;7.044;2022-11-15T01:18:27;11.90;99.90
10129;DHT22;5104;50.720;7.044;2022-11-15T01:20:54;11.90;99.90
10129;DHT22;5104;50.720;7.044;2022-11-15T01:23:20;11.90;99.90
10129;DHT22;5104;50.720;7.044;2022-11-15T01:25:47;11.90;99.90
10129;DHT22;5104;50.720;7.044;2022-11-15T01:28:14;11.90;99.90
10129;DHT22;5104;50.720;7.044;2022-11-15T01:30:41;11.90;99.90
10129;DHT22;5104;50.720;7.044;2022-11-15T01:33:08;11.90;99.90
10129;DHT22;5104;50.720;7.044;2022-11-15T01:35:39;11.80;99.90
10129;DHT22;5104;50.720;7.044;2022-11-15T01:38:06;11.80;99.90
10129;DHT22;5104;50.720;7.044;2022-11-15T01:40:33;11.70;99.90
10129;DHT22;5104;50.720;7.044;2022-11-15T01:43:18;11.60;99.90
10129;DHT22;5104;50.720;7.044;2022-11-15T01:45:47;11.50;99.90
10129;DHT22;5104;50.720;7.044;2022-11-15T01:48:16;11.40;99.90
10129;DHT22;5104;50.720;7.044;2022-11-15T01:50:44;11.40;99.90
10129;DHT22;5104;50.720;7.044;2022-11-15T01:53:12;11.30;99.90
10129;DHT22;5104;50.720;7.044;2022-11-15T01:55:38;11.20;99.90
10129;DHT22;5104;50.720;7.044;2022-11-15T01:58:06;11.20;99.90
10129;DHT22;5104;50.720;7.044;2022-11-15T02:00:34;11.20;99.90
10129;DHT22;5104;50.720;7.044;2022-11-15T02:03:01;11.20;99.90
10129;DHT22;5104;50.720;7.044;2022-11-15T02:05:30;11.20;99.90
10129;DHT22;5104;50.720;7.044;2022-11-15T02:07:59;11.20;99.90
10129;DHT22;5104;50.720;7.044;2022-11-15T02:10:27;11.30;99.90
10129;DHT22;5104;50.720;7.044;2022-11-15T02:12:56;11.30;99.90
10129;DHT22;5104;50.720;7.044;2022-11-15T02:15:25;11.30;99.90
10129;DHT22;5104;50.720;7.044;2022-11-15T02:18:10;11.40;99.90
10129;DHT22;5104;50.720;7.044;2022-11-15T02:20:52;11.40;99.90
10129;DHT22;5104;50.720;7.044;2022-11-15T02:23:50;11.40;99.90
10129;DHT22;5104;50.720;7.044;2022-11-15T02:26:50;11.40;99.90
10129;DHT22;5104;50.720;7.044;2022-11-15T02:29:28;11.50;99.90
10129;DHT22;5104;50.720;7.044;2022-11-15T02:32:04;11.50;99.90
10129;DHT22;5104;50.720;7.044;2022-11-15T02:34:36;11.50;99.90
10129;DHT22;5104;50.720;7.044;2022-11-15T02:37:11;11.50;99.90
10129;DHT22;5104;50.720;7.044;2022-11-15T02:39:46;11.50;99.90
10129;DHT22;5104;50.720;7.044;2022-11-15T02:42:19;11.50;99.90
10129;DHT22;5104;50.720;7.044;2022-11-15T02:45:07;11.50;99.90
10129;DHT22;5104;50.720;7.044;2022-11-15T02:47:43;11.50;99.90
10129;DHT22;5104;50.720;7.044;2022-11-15T02:50:12;11.50;99.90
10129;DHT22;5104;50.720;7.044;2022-11-15T02:52:40;11.50;99.90
10129;DHT22;5104;50.720;7.044;2022-11-15T02:55:25;11.50;99.90
10129;DHT22;5104;50.720;7.044;2022-11-15T03:00:47;11.50;99.90
10129;DHT22;5104;50.720;7.044;2022-11-15T03:03:36;11.50;99.90
10129;DHT22;5104;50.720;7.044;2022-11-15T03:06:11;11.50;99.90
10129;DHT22;5104;50.720;7.044;2022-11-15T03:08:46;11.50;99.90
10129;DHT22;5104;50.720;7.044;2022-11-15T03:11:16;11.50;99.90
10129;DHT22;5104;50.720;7.044;2022-11-15T03:13:49;11.50;99.90
10129;DHT22;5104;50.720;7.044;2022-11-15T03:16:22;11.50;99.90
10129;DHT22;5104;50.720;7.044;2022-11-15T03:18:54;11.60;99.90
10129;DHT22;5104;50.720;7.044;2022-11-15T03:21:24;11.60;99.90
10129;DHT22;5104;50.720;7.044;2022-11-15T03:23:53;11.60;99.90
10129;DHT22;5104;50.720;7.044;2022-11-15T03:26:23;11.60;99.90
10129;DHT22;5104;50.720;7.044;2022-11-15T03:28:54;11.60;99.90
10129;DHT22;5104;50.720;7.044;2022-11-15T03:31:23;11.70;99.90
10129;DHT22;5104;50.720;7.044;2022-11-15T03:34:15;11.70;99.90
10129;DHT22;5104;50.720;7.044;2022-11-15T03:36:45;11.70;99.90
10129;DHT22;5104;50.720;7.044;2022-11-15T03:39:14;11.70;99.90
10129;DHT22;5104;50.720;7.044;2022-11-15T03:41:46;11.70;99.90
10129;DHT22;5104;50.720;7.044;2022-11-15T03:44:20;11.70;99.90
10129;DHT22;5104;50.720;7.044;2022-11-15T03:46:55;11.70;99.90
10129;DHT22;5104;50.720;7.044;2022-11-15T03:49:28;11.70;99.90
10129;DHT22;5104;50.720;7.044;2022-11-15T03:51:57;11.70;99.90
10129;DHT22;5104;50.720;7.044;2022-11-15T03:54:24;11.80;99.90
10129;DHT22;5104;50.720;7.044;2022-11-15T03:56:51;11.80;99.90
10129;DHT22;5104;50.720;7.044;2022-11-15T03:59:18;11.80;99.90
10129;DHT22;5104;50.720;7.044;2022-11-15T04:01:45;11.90;99.90
10129;DHT22;5104;50.720;7.044;2022-11-15T04:04:12;11.90;99.90
10129;DHT22;5104;50.720;7.044;2022-11-15T04:06:40;11.90;99.90
10129;DHT22;5104;50.720;7.044;2022-11-15T04:09:07;11.80;99.90
10129;DHT22;5104;50.720;7.044;2022-11-15T04:11:34;11.70;99.90
10129;DHT22;5104;50.720;7.044;2022-11-15T04:14:01;11.70;99.90
10129;DHT22;5104;50.720;7.044;2022-11-15T04:16:28;11.60;99.90
10129;DHT22;5104;50.720;7.044;2022-11-15T04:18:54;11.50;99.90
10129;DHT22;5104;50.720;7.044;2022-11-15T04:21:35;11.40;99.90
10129;DHT22;5104;50.720;7.044;2022-11-15T04:24:21;11.30;99.90
10129;DHT22;5104;50.720;7.044;2022-11-15T04:26:47;11.20;99.90
10129;DHT22;5104;50.720;7.044;2022-11-15T04:29:15;11.10;99.90
10129;DHT22;5104;50.720;7.044;2022-11-15T04:31:59;11.00;99.90
10129;DHT22;5104;50.720;7.044;2022-11-15T04:34:26;10.80;99.90
10129;DHT22;5104;50.720;7.044;2022-11-15T04:36:53;10.70;99.90
10129;DHT22;5104;50.720;7.044;2022-11-15T04:39:39;10.70;99.90
10129;DHT22;5104;50.720;7.044;2022-11-15T04:42:07;10.60;99.90
10129;DHT22;5104;50.720;7.044;2022-11-15T04:44:34;10.60;99.90
10129;DHT22;5104;50.720;7.044;2022-11-15T04:47:01;10.60;99.90
10129;DHT22;5104;50.720;7.044;2022-11-15T04:49:28;10.70;99.90
10129;DHT22;5104;50.720;7.044;2022-11-15T04:51:55;10.90;99.90
10129;DHT22;5104;50.720;7.044;2022-11-15T04:54:22;11.10;99.90
10129;DHT22;5104;50.720;7.044;2022-11-15T04:56:50;11.30;99.90
10129;DHT22;5104;50.720;7.044;2022-11-15T04:59:17;11.40;99.90
10129;DHT22;5104;50.720;7.044;2022-11-15T05:01:44;11.50;99.90
10129;DHT22;5104;50.720;7.044;2022-11-15T05:04:11;11.60;99.90
10129;DHT22;5104;50.720;7.044;2022-11-15T05:06:47;11.60;99.90
10129;DHT22;5104;50.720;7.044;2022-11-15T05:09:14;11.60;99.90
10129;DHT22;5104;50.720;7.044;2022-11-15T05:11:41;11.40;99.90
10129;DHT22;5104;50.720;7.044;2022-11-15T05:14:10;11.30;99.90
10129;DHT22;5104;50.720;7.044;2022-11-15T05:16:37;11.10;99.90
10129;DHT22;5104;50.720;7.044;2022-11-15T05:19:04;11.00;99.90
10129;DHT22;5104;50.720;7.044;2022-11-15T05:21:32;10.80;99.90
10129;DHT22;5104;50.720;7.044;2022-11-15T05:24:02;10.80;99.90
10129;DHT22;5104;50.720;7.044;2022-11-15T05:26:30;10.80;99.90
10129;DHT22;5104;50.720;7.044;2022-11-15T05:28:58;10.80;99.90
10129;DHT22;5104;50.720;7.044;2022-11-15T05:31:27;10.80;99.90
10129;DHT22;5104;50.720;7.044;2022-11-15T05:33:55;10.80;99.90
10129;DHT22;5104;50.720;7.044;2022-11-15T05:36:29;10.80;99.90
10129;DHT22;5104;50.720;7.044;2022-11-15T05:38:58;10.90;99.90
10129;DHT22;5104;50.720;7.044;2022-11-15T05:41:27;10.90;99.90
10129;DHT22;5104;50.720;7.044;2022-11-15T05:43:56;10.90;99.90
10129;DHT22;5104;50.720;7.044;2022-11-15T05:46:23;10.80;99.90
10129;DHT22;5104;50.720;7.044;2022-11-15T05:48:52;10.70;99.90
10129;DHT22;5104;50.720;7.044;2022-11-15T05:51:20;10.60;99.90
10129;DHT22;5104;50.720;7.044;2022-11-15T05:53:49;10.50;99.90
10129;DHT22;5104;50.720;7.044;2022-11-15T05:56:16;10.40;99.90
10129;DHT22;5104;50.720;7.044;2022-11-15T05:58:43;10.40;99.90
10129;DHT22;5104;50.720;7.044;2022-11-15T06:01:10;10.30;99.90
10129;DHT22;5104;50.720;7.044;2022-11-15T06:03:37;10.30;99.90
10129;DHT22;5104;50.720;7.044;2022-11-15T06:06:06;10.30;99.90
10129;DHT22;5104;50.720;7.044;2022-11-15T06:08:33;10.30;99.90
10129;DHT22;5104;50.720;7.044;2022-11-15T06:11:04;10.30;99.90
10129;DHT22;5104;50.720;7.044;2022-11-15T06:13:31;10.40;99.90
10129;DHT22;5104;50.720;7.044;2022-11-15T06:15:58;10.50;99.90
10129;DHT22;5104;50.720;7.044;2022-11-15T06:18:25;10.50;99.90
10129;DHT22;5104;50.720;7.044;2022-11-15T06:20:52;10.40;99.90
10129;DHT22;5104;50.720;7.044;2022-11-15T06:23:21;10.40;99.90
10129;DHT22;5104;50.720;7.044;2022-11-15T06:25:47;10.30;99.90
10129;DHT22;5104;50.720;7.044;2022-11-15T06:28:14;10.20;99.90
10129;DHT22;5104;50.720;7.044;2022-11-15T06:30:41;10.10;99.90
10129;DHT22;5104;50.720;7.044;2022-11-15T06:33:08;10.00;99.90
10129;DHT22;5104;50.720;7.044;2022-11-15T06:35:35;9.90;99.90
10129;DHT22;5104;50.720;7.044;2022-11-15T06:38:03;9.80;99.90
10129;DHT22;5104;50.720;7.044;2022-11-15T06:40:34;9.70;99.90
10129;DHT22;5104;50.720;7.044;2022-11-15T06:43:02;9.60;99.90
10129;DHT22;5104;50.720;7.044;2022-11-15T06:45:29;9.50;99.90
10129;DHT22;5104;50.720;7.044;2022-11-15T06:47:57;9.50;99.90
10129;DHT22;5104;50.720;7.044;2022-11-15T06:50:24;9.50;99.90
10129;DHT22;5104;50.720;7.044;2022-11-15T06:52:51;9.40;99.90
10129;DHT22;5104;50.720;7.044;2022-11-15T06:55:18;9.40;99.90
10129;DHT22;5104;50.720;7.044;2022-11-15T06:57:50;9.50;99.90
10129;DHT22;5104;50.720;7.044;2022-11-15T07:00:21;9.50;99.90
10129;DHT22;5104;50.720;7.044;2022-11-15T07:02:48;9.40;99.90
10129;DHT22;5104;50.720;7.044;2022-11-15T07:05:16;9.40;99.90
10129;DHT22;5104;50.720;7.044;2022-11-15T07:07:42;9.30;99.90
10129;DHT22;5104;50.720;7.044;2022-11-15T07:10:09;9.30;99.90
10129;DHT22;5104;50.720;7.044;2022-11-15T07:12:36;9.20;99.90
10129;DHT22;5104;50.720;7.044;2022-11-15T07:15:06;9.20;99.90
10129;DHT22;5104;50.720;7.044;2022-11-15T07:17:33;9.20;99.90
10129;DHT22;5104;50.720;7.044;2022-11-15T07:20:00;9.20;99.90
10129;DHT22;5104;50.720;7.044;2022-11-15T07:22:26;9.20;99.90
10129;DHT22;5104;50.720;7.044;2022-11-15T07:24:53;9.20;99.90
10129;DHT22;5104;50.720;7.044;2022-11-15T07:27:20;9.20;99.90
10129;DHT22;5104;50.720;7.044;2022-11-15T07:29:47;9.20;99.90
10129;DHT22;5104;50.720;7.044;2022-11-15T07:32:15;9.20;99.90
10129;DHT22;5104;50.720;7.044;2022-11-15T07:34:42;9.20;99.90
10129;DHT22;5104;50.720;7.044;2022-11-15T07:37:10;9.20;99.90
10129;DHT22;5104;50.720;7.044;2022-11-15T07:39:38;9.30;99.90
10129;DHT22;5104;50.720;7.044;2022-11-15T07:42:05;9.30;99.90
10129;DHT22;5104;50.720;7.044;2022-11-15T07:44:49;9.30;99.90
10129;DHT22;5104;50.720;7.044;2022-11-15T07:47:17;9.40;99.90
10129;DHT22;5104;50.720;7.044;2022-11-15T07:49:44;9.50;99.90
10129;DHT22;5104;50.720;7.044;2022-11-15T07:52:11;9.60;99.90
10129;DHT22;5104;50.720;7.044;2022-11-15T07:54:38;9.60;99.90
10129;DHT22;5104;50.720;7.044;2022-11-15T07:57:05;9.70;99.90
10129;DHT22;5104;50.720;7.044;2022-11-15T07:59:34;9.70;99.90
10129;DHT22;5104;50.720;7.044;2022-11-15T08:02:02;9.70;99.90
10129;DHT22;5104;50.720;7.044;2022-11-15T08:04:30;9.80;99.90
10129;DHT22;5104;50.720;7.044;2022-11-15T08:06:57;9.90;99.90
10129;DHT22;5104;50.720;7.044;2022-11-15T08:09:24;9.90;99.90
10129;DHT22;5104;50.720;7.044;2022-11-15T08:11:51;10.00;99.90
10129;DHT22;5104;50.720;7.044;2022-11-15T08:14:18;10.10;99.90
10129;DHT22;5104;50.720;7.044;2022-11-15T08:16:48;10.20;99.90
10129;DHT22;5104;50.720;7.044;2022-11-15T08:19:15;10.20;99.90
10129;DHT22;5104;50.720;7.044;2022-11-15T08:21:43;10.20;99.90
10129;DHT22;5104;50.720;7.044;2022-11-15T08:24:10;10.30;99.90
10129;DHT22;5104;50.720;7.044;2022-11-15T08:26:37;10.40;99.90
10129;DHT22;5104;50.720;7.044;2022-11-15T08:29:04;10.40;99.90
10129;DHT22;5104;50.720;7.044;2022-11-15T08:31:33;10.40;99.90
10129;DHT22;5104;50.720;7.044;2022-11-15T08:34:00;10.50;99.90
10129;DHT22;5104;50.720;7.044;2022-11-15T08:36:27;10.60;99.90
10129;DHT22;5104;50.720;7.044;2022-11-15T08:38:56;10.70;99.90
10129;DHT22;5104;50.720;7.044;2022-11-15T08:41:25;10.80;99.90
10129;DHT22;5104;50.720;7.044;2022-11-15T08:43:53;10.80;99.90
10129;DHT22;5104;50.720;7.044;2022-11-15T08:46:20;11.00;99.90
10129;DHT22;5104;50.720;7.044;2022-11-15T08:48:47;11.10;99.90
10129;DHT22;5104;50.720;7.044;2022-11-15T08:51:13;11.30;99.90
10129;DHT22;5104;50.720;7.044;2022-11-15T08:53:40;11.40;99.90
10129;DHT22;5104;50.720;7.044;2022-11-15T08:56:10;11.60;99.90
10129;DHT22;5104;50.720;7.044;2022-11-15T08:58:38;11.70;99.90
10129;DHT22;5104;50.720;7.044;2022-11-15T09:01:05;11.80;99.90
10129;DHT22;5104;50.720;7.044;2022-11-15T09:03:32;11.90;99.90
10129;DHT22;5104;50.720;7.044;2022-11-15T09:06:00;12.00;99.90
10129;DHT22;5104;50.720;7.044;2022-11-15T09:08:30;12.20;99.90
10129;DHT22;5104;50.720;7.044;2022-11-15T09:10:57;12.30;99.90
10129;DHT22;5104;50.720;7.044;2022-11-15T09:13:25;12.30;99.90
10129;DHT22;5104;50.720;7.044;2022-11-15T09:15:52;12.40;99.90
10129;DHT22;5104;50.720;7.044;2022-11-15T09:18:19;12.40;1.00
10129;DHT22;5104;50.720;7.044;2022-11-15T09:20:47;12.40;1.00
10129;DHT22;5104;50.720;7.044;2022-11-15T09:23:14;12.50;1.00
10129;DHT22;5104;50.720;7.044;2022-11-15T09:25:41;12.50;1.00
10129;DHT22;5104;50.720;7.044;2022-11-15T09:28:08;12.60;1.00
10129;DHT22;5104;50.720;7.044;2022-11-15T09:30:36;12.60;1.00
10129;DHT22;5104;50.720;7.044;2022-11-15T09:33:07;12.70;99.90
10129;DHT22;5104;50.720;7.044;2022-11-15T09:35:34;12.80;1.00
10129;DHT22;5104;50.720;7.044;2022-11-15T09:38:01;12.80;99.90
10129;DHT22;5104;50.720;7.044;2022-11-15T09:40:30;12.80;1.00
10129;DHT22;5104;50.720;7.044;2022-11-15T09:43:08;12.80;1.00
10129;DHT22;5104;50.720;7.044;2022-11-15T09:45:57;12.90;99.90
10129;DHT22;5104;50.720;7.044;2022-11-15T09:48:38;12.90;79.30
10129;DHT22;5104;50.720;7.044;2022-11-15T09:51:14;12.90;1.00
10129;DHT22;5104;50.720;7.044;2022-11-15T09:53:50;13.00;38.30
10129;DHT22;5104;50.720;7.044;2022-11-15T09:56:21;13.00;1.00
10129;DHT22;5104;50.720;7.044;2022-11-15T09:58:56;13.00;1.00
10129;DHT22;5104;50.720;7.044;2022-11-15T10:01:36;13.10;99.90
10129;DHT22;5104;50.720;7.044;2022-11-15T10:04:05;13.10;99.90
10129;DHT22;5104;50.720;7.044;2022-11-15T10:06:36;13.20;1.00
10129;DHT22;5104;50.720;7.044;2022-11-15T10:09:11;13.20;99.90
10129;DHT22;5104;50.720;7.044;2022-11-15T10:11:40;13.20;99.90
10129;DHT22;5104;50.720;7.044;2022-11-15T10:14:11;13.20;99.90
10129;DHT22;5104;50.720;7.044;2022-11-15T10:17:26;13.20;1.00
10129;DHT22;5104;50.720;7.044;2022-11-15T10:20:05;13.30;99.90
10129;DHT22;5104;50.720;7.044;2022-11-15T10:22:39;13.40;23.70
10129;DHT22;5104;50.720;7.044;2022-11-15T10:25:17;13.50;1.00
10129;DHT22;5104;50.720;7.044;2022-11-15T10:27:50;13.50;1.00
10129;DHT22;5104;50.720;7.044;2022-11-15T10:30:18;13.60;99.90
10129;DHT22;5104;50.720;7.044;2022-11-15T10:32:48;13.60;99.90
10129;DHT22;5104;50.720;7.044;2022-11-15T10:35:21;13.60;1.00
10129;DHT22;5104;50.720;7.044;2022-11-15T10:37:48;13.60;45.40
10129;DHT22;5104;50.720;7.044;2022-11-15T10:40:19;13.80;99.90
10129;DHT22;5104;50.720;7.044;2022-11-15T10:42:47;13.70;1.00
10129;DHT22;5104;50.720;7.044;2022-11-15T10:45:26;13.70;1.00
10129;DHT22;5104;50.720;7.044;2022-11-15T10:48:19;13.80;1.00
10129;DHT22;5104;50.720;7.044;2022-11-15T10:50:47;13.70;1.00
10129;DHT22;5104;50.720;7.044;2022-11-15T10:53:19;13.70;1.00
10129;DHT22;5104;50.720;7.044;2022-11-15T10:55:49;13.80;1.00
10129;DHT22;5104;50.720;7.044;2022-11-15T10:58:23;13.80;1.00
10129;DHT22;5104;50.720;7.044;2022-11-15T11:00:54;13.80;1.00
10129;DHT22;5104;50.720;7.044;2022-11-15T11:03:28;13.80;99.90
10129;DHT22;5104;50.720;7.044;2022-11-15T11:06:11;13.80;1.00
10129;DHT22;5104;50.720;7.044;2022-11-15T11:08:38;13.70;1.00
10129;DHT22;5104;50.720;7.044;2022-11-15T11:11:06;13.50;99.90
10129;DHT22;5104;50.720;7.044;2022-11-15T11:13:36;13.50;1.00
10129;DHT22;5104;50.720;7.044;2022-11-15T11:16:23;13.40;1.00
10129;DHT22;5104;50.720;7.044;2022-11-15T11:19:08;13.30;1.00
10129;DHT22;5104;50.720;7.044;2022-11-15T11:21:54;13.30;1.00
10129;DHT22;5104;50.720;7.044;2022-11-15T11:24:34;13.30;99.90
10129;DHT22;5104;50.720;7.044;2022-11-15T11:27:18;13.40;1.00
10129;DHT22;5104;50.720;7.044;2022-11-15T11:30:02;13.50;1.00
10129;DHT22;5104;50.720;7.044;2022-11-15T11:32:40;13.80;99.90
10129;DHT22;5104;50.720;7.044;2022-11-15T11:35:13;14.10;1.00
10129;DHT22;5104;50.720;7.044;2022-11-15T11:37:56;14.40;1.00
10129;DHT22;5104;50.720;7.044;2022-11-15T11:40:30;14.50;99.90
10129;DHT22;5104;50.720;7.044;2022-11-15T11:43:05;14.70;1.00
10129;DHT22;5104;50.720;7.044;2022-11-15T11:45:57;14.80;1.00
10129;DHT22;5104;50.720;7.044;2022-11-15T11:48:40;14.70;1.00
10129;DHT22;5104;50.720;7.044;2022-11-15T11:51:15;14.60;1.00
10129;DHT22;5104;50.720;7.044;2022-11-15T11:53:49;14.60;43.50
10129;DHT22;5104;50.720;7.044;2022-11-15T11:56:24;14.60;1.00
10129;DHT22;5104;50.720;7.044;2022-11-15T11:58:54;14.60;99.90
10129;DHT22;5104;50.720;7.044;2022-11-15T12:01:23;14.70;1.00
10129;DHT22;5104;50.720;7.044;2022-11-15T12:03:54;14.90;1.00
10129;DHT22;5104;50.720;7.044;2022-11-15T12:06:30;14.90;1.00
10129;DHT22;5104;50.720;7.044;2022-11-15T12:09:02;14.90;1.00
10129;DHT22;5104;50.720;7.044;2022-11-15T12:11:37;14.80;1.00
10129;DHT22;5104;50.720;7.044;2022-11-15T12:14:12;14.90;99.90
10129;DHT22;5104;50.720;7.044;2022-11-15T12:16:43;15.00;7.70
10129;DHT22;5104;50.720;7.044;2022-11-15T12:19:10;14.90;99.90
10129;DHT22;5104;50.720;7.044;2022-11-15T12:21:43;14.80;1.00
10129;DHT22;5104;50.720;7.044;2022-11-15T12:24:15;14.80;1.00
10129;DHT22;5104;50.720;7.044;2022-11-15T12:26:48;14.70;1.00
10129;DHT22;5104;50.720;7.044;2022-11-15T12:29:20;14.70;1.00
10129;DHT22;5104;50.720;7.044;2022-11-15T12:31:50;14.80;1.00
10129;DHT22;5104;50.720;7.044;2022-11-15T12:34:39;14.80;1.00
10129;DHT22;5104;50.720;7.044;2022-11-15T12:40:21;15.00;99.90
10129;DHT22;5104;50.720;7.044;2022-11-15T12:43:00;14.90;99.90
10129;DHT22;5104;50.720;7.044;2022-11-15T12:45:29;15.00;99.90
10129;DHT22;5104;50.720;7.044;2022-11-15T12:51:06;15.00;1.00
10129;DHT22;5104;50.720;7.044;2022-11-15T12:53:34;15.00;1.00
10129;DHT22;5104;50.720;7.044;2022-11-15T12:56:21;14.90;99.90
10129;DHT22;5104;50.720;7.044;2022-11-15T12:58:53;15.00;1.00
10129;DHT22;5104;50.720;7.044;2022-11-15T13:04:29;14.90;1.00
10129;DHT22;5104;50.720;7.044;2022-11-15T13:06:59;14.80;1.00
10129;DHT22;5104;50.720;7.044;2022-11-15T13:09:52;14.80;1.00
10129;DHT22;5104;50.720;7.044;2022-11-15T13:12:55;14.70;99.90
10129;DHT22;5104;50.720;7.044;2022-11-15T13:15:38;14.60;13.30
10129;DHT22;5104;50.720;7.044;2022-11-15T13:18:34;14.60;99.90
10129;DHT22;5104;50.720;7.044;2022-11-15T13:21:03;14.50;1.00
10129;DHT22;5104;50.720;7.044;2022-11-15T13:23:54;14.40;1.00
10129;DHT22;5104;50.720;7.044;2022-11-15T13:26:21;14.50;99.90
10129;DHT22;5104;50.720;7.044;2022-11-15T13:28:51;14.30;1.00
10129;DHT22;5104;50.720;7.044;2022-11-15T13:31:24;14.40;1.00
10129;DHT22;5104;50.720;7.044;2022-11-15T13:33:53;14.50;1.00
10129;DHT22;5104;50.720;7.044;2022-11-15T13:36:23;14.50;1.00
10129;DHT22;5104;50.720;7.044;2022-11-15T13:38:56;14.60;1.00
10129;DHT22;5104;50.720;7.044;2022-11-15T13:41:26;14.60;99.90
10129;DHT22;5104;50.720;7.044;2022-11-15T13:43:55;14.70;1.00
10129;DHT22;5104;50.720;7.044;2022-11-15T13:46:25;14.70;1.00
10129;DHT22;5104;50.720;7.044;2022-11-15T13:48:54;14.70;1.00
10129;DHT22;5104;50.720;7.044;2022-11-15T13:51:28;14.70;1.00
10129;DHT22;5104;50.720;7.044;2022-11-15T13:54:01;14.70;99.90
10129;DHT22;5104;50.720;7.044;2022-11-15T13:56:31;14.60;99.90
10129;DHT22;5104;50.720;7.044;2022-11-15T13:59:07;14.60;1.00
10129;DHT22;5104;50.720;7.044;2022-11-15T14:01:34;14.60;1.00
10129;DHT22;5104;50.720;7.044;2022-11-15T14:04:03;14.60;1.00
10129;DHT22;5104;50.720;7.044;2022-11-15T14:06:30;14.70;99.90
10129;DHT22;5104;50.720;7.044;2022-11-15T14:11:52;14.70;99.90
10129;DHT22;5104;50.720;7.044;2022-11-15T14:14:22;14.80;1.00
10129;DHT22;5104;50.720;7.044;2022-11-15T14:16:51;14.80;72.00
10129;DHT22;5104;50.720;7.044;2022-11-15T14:19:39;14.70;1.00
10129;DHT22;5104;50.720;7.044;2022-11-15T14:22:12;14.70;99.90
10129;DHT22;5104;50.720;7.044;2022-11-15T14:24:39;14.70;1.00
10129;DHT22;5104;50.720;7.044;2022-11-15T14:27:20;14.70;99.90
10129;DHT22;5104;50.720;7.044;2022-11-15T14:29:49;14.60;99.90
10129;DHT22;5104;50.720;7.044;2022-11-15T14:32:18;14.60;1.00
10129;DHT22;5104;50.720;7.044;2022-11-15T14:34:46;14.50;1.00
10129;DHT22;5104;50.720;7.044;2022-11-15T14:37:20;14.40;13.60
10129;DHT22;5104;50.720;7.044;2022-11-15T14:39:49;14.40;99.90
10129;DHT22;5104;50.720;7.044;2022-11-15T14:42:16;14.30;39.50
10129;DHT22;5104;50.720;7.044;2022-11-15T14:44:43;14.20;99.90
10129;DHT22;5104;50.720;7.044;2022-11-15T14:47:11;14.20;99.90
10129;DHT22;5104;50.720;7.044;2022-11-15T14:49:38;14.20;99.90
10129;DHT22;5104;50.720;7.044;2022-11-15T14:54:54;14.20;99.90
10129;DHT22;5104;50.720;7.044;2022-11-15T14:57:22;14.10;1.00
10129;DHT22;5104;50.720;7.044;2022-11-15T14:59:49;14.10;1.00
10129;DHT22;5104;50.720;7.044;2022-11-15T15:02:19;14.10;1.00
10129;DHT22;5104;50.720;7.044;2022-11-15T15:04:48;14.00;1.00
10129;DHT22;5104;50.720;7.044;2022-11-15T15:07:15;14.00;1.00
10129;DHT22;5104;50.720;7.044;2022-11-15T15:09:43;13.90;1.00
10129;DHT22;5104;50.720;7.044;2022-11-15T15:12:17;13.90;1.00
10129;DHT22;5104;50.720;7.044;2022-11-15T15:14:45;13.80;1.00
10129;DHT22;5104;50.720;7.044;2022-11-15T15:17:13;13.80;1.00
10129;DHT22;5104;50.720;7.044;2022-11-15T15:19:41;13.80;1.00
10129;DHT22;5104;50.720;7.044;2022-11-15T15:22:12;13.70;1.00
10129;DHT22;5104;50.720;7.044;2022-11-15T15:24:40;13.60;1.00
10129;DHT22;5104;50.720;7.044;2022-11-15T15:27:08;13.60;1.00
10129;DHT22;5104;50.720;7.044;2022-11-15T15:29:35;13.60;1.00
10129;DHT22;5104;50.720;7.044;2022-11-15T15:32:02;13.50;1.00
10129;DHT22;5104;50.720;7.044;2022-11-15T15:34:28;13.60;1.00
10129;DHT22;5104;50.720;7.044;2022-11-15T15:37:21;13.50;1.00
10129;DHT22;5104;50.720;7.044;2022-11-15T15:39:49;13.50;1.00
10129;DHT22;5104;50.720;7.044;2022-11-15T15:42:17;13.50;1.00
10129;DHT22;5104;50.720;7.044;2022-11-15T15:44:44;13.50;1.00
10129;DHT22;5104;50.720;7.044;2022-11-15T15:47:11;13.50;1.00
10129;DHT22;5104;50.720;7.044;2022-11-15T15:49:39;13.40;1.00
10129;DHT22;5104;50.720;7.044;2022-11-15T15:52:06;13.40;1.00
10129;DHT22;5104;50.720;7.044;2022-11-15T15:54:35;13.30;1.00
10129;DHT22;5104;50.720;7.044;2022-11-15T15:57:02;13.30;1.00
10129;DHT22;5104;50.720;7.044;2022-11-15T15:59:29;13.40;1.00
10129;DHT22;5104;50.720;7.044;2022-11-15T16:01:55;13.40;1.00
10129;DHT22;5104;50.720;7.044;2022-11-15T16:04:22;13.40;1.00
10129;DHT22;5104;50.720;7.044;2022-11-15T16:06:50;13.40;1.00
10129;DHT22;5104;50.720;7.044;2022-11-15T16:09:19;13.30;1.00
10129;DHT22;5104;50.720;7.044;2022-11-15T16:12:08;13.30;1.00
10129;DHT22;5104;50.720;7.044;2022-11-15T16:14:45;13.30;1.00
10129;DHT22;5104;50.720;7.044;2022-11-15T16:17:16;13.30;1.00
10129;DHT22;5104;50.720;7.044;2022-11-15T16:19:43;13.30;1.00
10129;DHT22;5104;50.720;7.044;2022-11-15T16:22:10;13.20;1.00
10129;DHT22;5104;50.720;7.044;2022-11-15T16:24:37;13.20;1.00
10129;DHT22;5104;50.720;7.044;2022-11-15T16:27:04;13.20;1.00
10129;DHT22;5104;50.720;7.044;2022-11-15T16:29:32;13.20;1.00
10129;DHT22;5104;50.720;7.044;2022-11-15T16:32:00;13.20;1.00
10129;DHT22;5104;50.720;7.044;2022-11-15T16:34:26;13.20;1.00